sensor_id;sensor_type;location;lat;lon;timestamp;pressure;altitude;pressure_sealevel;temperature;humidity
71145;BME280;58812;47.698;17.726;2023-05-16T00:00:53;99807.31;;;11.39;100.00
71145;BME280;58812;47.698;17.726;2023-05-16T00:03:19;99797.91;;;11.35;100.00
71145;BME280;58812;47.698;17.726;2023-05-16T00:05:45;99798.59;;;11.37;100.00
71145;BME280;58812;47.698;17.726;2023-05-16T00:08:11;99791.56;;;11.36;100.00
71145;BME280;58812;47.698;17.726;2023-05-16T00:10:36;99797.09;;;11.35;100.00
71145;BME280;58812;47.698;17.726;2023-05-16T00:13:02;99793.41;;;11.36;100.00
71145;BME280;58812;47.698;17.726;2023-05-16T00:15:28;99801.28;;;11.37;100.00
71145;BME280;58812;47.698;17.726;2023-05-16T00:17:56;99807.12;;;11.33;100.00
71145;BME280;58812;47.698;17.726;2023-05-16T00:20:24;99799.41;;;11.30;100.00
71145;BME280;58812;47.698;17.726;2023-05-16T00:22:51;99796.56;;;11.31;100.00
71145;BME280;58812;47.698;17.726;2023-05-16T00:25:16;99793.88;;;11.31;100.00
71145;BME280;58812;47.698;17.726;2023-05-16T00:27:42;99780.81;;;11.28;100.00
71145;BME280;58812;47.698;17.726;2023-05-16T00:30:07;99793.53;;;11.26;100.00
71145;BME280;58812;47.698;17.726;2023-05-16T00:32:33;99791.84;;;11.25;100.00
71145;BME280;58812;47.698;17.726;2023-05-16T00:34:58;99789.34;;;11.23;100.00
71145;BME280;58812;47.698;17.726;2023-05-16T00:37:24;99785.66;;;11.24;100.00
71145;BME280;58812;47.698;17.726;2023-05-16T00:39:49;99794.69;;;11.23;100.00
71145;BME280;58812;47.698;17.726;2023-05-16T00:42:15;99808.56;;;11.11;100.00
71145;BME280;58812;47.698;17.726;2023-05-16T00:44:41;99806.53;;;11.13;100.00
71145;BME280;58812;47.698;17.726;2023-05-16T00:47:06;99807.75;;;11.18;100.00
71145;BME280;58812;47.698;17.726;2023-05-16T00:49:32;99809.09;;;11.22;100.00
71145;BME280;58812;47.698;17.726;2023-05-16T00:51:58;99803.56;;;11.24;100.00
71145;BME280;58812;47.698;17.726;2023-05-16T00:54:25;99797.22;;;11.25;100.00
71145;BME280;58812;47.698;17.726;2023-05-16T00:56:51;99797.19;;;11.17;100.00
71145;BME280;58812;47.698;17.726;2023-05-16T00:59:18;99794.63;;;11.07;100.00
71145;BME280;58812;47.698;17.726;2023-05-16T01:01:45;99789.97;;;11.09;100.00
71145;BME280;58812;47.698;17.726;2023-05-16T01:04:11;99772.37;;;11.07;100.00
71145;BME280;58812;47.698;17.726;2023-05-16T01:06:36;99772.72;;;11.04;100.00
71145;BME280;58812;47.698;17.726;2023-05-16T01:09:02;99758.25;;;10.96;100.00
71145;BME280;58812;47.698;17.726;2023-05-16T01:14:21;99760.28;;;11.03;100.00
71145;BME280;58812;47.698;17.726;2023-05-16T01:16:57;99766.16;;;11.06;100.00
71145;BME280;58812;47.698;17.726;2023-05-16T01:25:26;99761.84;;;11.13;100.00
71145;BME280;58812;47.698;17.726;2023-05-16T01:27:56;99754.31;;;11.17;100.00
71145;BME280;58812;47.698;17.726;2023-05-16T01:30:22;99752.97;;;11.13;100.00
71145;BME280;58812;47.698;17.726;2023-05-16T01:32:47;99750.91;;;10.99;100.00
71145;BME280;58812;47.698;17.726;2023-05-16T01:35:15;99762.81;;;11.04;100.00
71145;BME280;58812;47.698;17.726;2023-05-16T01:37:53;99755.97;;;11.10;100.00
71145;BME280;58812;47.698;17.726;2023-05-16T01:40:40;99753.97;;;11.12;100.00
71145;BME280;58812;47.698;17.726;2023-05-16T01:43:12;99757.66;;;11.11;100.00
71145;BME280;58812;47.698;17.726;2023-05-16T01:45:42;99768.53;;;11.09;100.00
71145;BME280;58812;47.698;17.726;2023-05-16T01:48:21;99762.66;;;11.06;100.00
71145;BME280;58812;47.698;17.726;2023-05-16T01:50:53;99752.31;;;11.11;100.00
71145;BME280;58812;47.698;17.726;2023-05-16T01:53:23;99751.66;;;11.17;100.00
71145;BME280;58812;47.698;17.726;2023-05-16T01:55:51;99758.69;;;11.18;100.00
71145;BME280;58812;47.698;17.726;2023-05-16T01:58:23;99760.97;;;11.05;100.00
71145;BME280;58812;47.698;17.726;2023-05-16T02:00:52;99783.81;;;10.83;100.00
71145;BME280;58812;47.698;17.726;2023-05-16T02:03:17;99776.97;;;10.88;100.00
71145;BME280;58812;47.698;17.726;2023-05-16T02:05:42;99786.88;;;10.96;100.00
71145;BME280;58812;47.698;17.726;2023-05-16T02:08:08;99788.78;;;11.04;100.00
71145;BME280;58812;47.698;17.726;2023-05-16T02:10:33;99777.38;;;11.02;100.00
71145;BME280;58812;47.698;17.726;2023-05-16T02:12:59;99772.91;;;11.10;100.00
71145;BME280;58812;47.698;17.726;2023-05-16T02:15:24;99773.09;;;11.17;100.00
71145;BME280;58812;47.698;17.726;2023-05-16T02:17:50;99778.44;;;11.17;100.00
71145;BME280;58812;47.698;17.726;2023-05-16T02:20:15;99781.78;;;11.19;100.00
71145;BME280;58812;47.698;17.726;2023-05-16T02:22:41;99781.63;;;11.20;100.00
71145;BME280;58812;47.698;17.726;2023-05-16T02:25:12;99778.78;;;11.22;100.00
71145;BME280;58812;47.698;17.726;2023-05-16T02:27:37;99775.41;;;11.20;100.00
71145;BME280;58812;47.698;17.726;2023-05-16T02:30:03;99766.06;;;11.16;100.00
71145;BME280;58812;47.698;17.726;2023-05-16T02:32:30;99758.00;;;11.16;100.00
71145;BME280;58812;47.698;17.726;2023-05-16T02:34:56;99759.84;;;11.15;100.00
71145;BME280;58812;47.698;17.726;2023-05-16T02:37:21;99764.03;;;11.10;100.00
71145;BME280;58812;47.698;17.726;2023-05-16T02:39:46;99752.78;;;11.14;100.00
71145;BME280;58812;47.698;17.726;2023-05-16T02:42:12;99741.91;;;11.08;100.00
71145;BME280;58812;47.698;17.726;2023-05-16T02:44:37;99741.41;;;11.04;100.00
71145;BME280;58812;47.698;17.726;2023-05-16T02:47:03;99739.72;;;11.03;100.00
71145;BME280;58812;47.698;17.726;2023-05-16T02:49:28;99746.75;;;11.04;100.00
71145;BME280;58812;47.698;17.726;2023-05-16T02:51:54;99742.91;;;11.07;100.00
71145;BME280;58812;47.698;17.726;2023-05-16T02:54:19;99726.81;;;11.07;100.00
71145;BME280;58812;47.698;17.726;2023-05-16T02:56:45;99710.44;;;11.10;100.00
71145;BME280;58812;47.698;17.726;2023-05-16T02:59:10;99699.03;;;11.08;100.00
71145;BME280;58812;47.698;17.726;2023-05-16T03:01:36;99709.75;;;11.08;100.00
71145;BME280;58812;47.698;17.726;2023-05-16T03:04:02;99694.69;;;11.07;100.00
71145;BME280;58812;47.698;17.726;2023-05-16T03:06:27;99687.66;;;11.06;100.00
71145;BME280;58812;47.698;17.726;2023-05-16T03:08:54;99683.13;;;11.06;100.00
71145;BME280;58812;47.698;17.726;2023-05-16T03:11:20;99693.19;;;11.04;100.00
71145;BME280;58812;47.698;17.726;2023-05-16T03:13:46;99701.38;;;11.03;100.00
71145;BME280;58812;47.698;17.726;2023-05-16T03:16:12;99708.41;;;11.04;100.00
71145;BME280;58812;47.698;17.726;2023-05-16T03:18:38;99705.03;;;11.02;100.00
71145;BME280;58812;47.698;17.726;2023-05-16T03:21:03;99707.06;;;11.08;100.00
71145;BME280;58812;47.698;17.726;2023-05-16T03:23:29;99712.59;;;11.06;100.00
71145;BME280;58812;47.698;17.726;2023-05-16T03:25:54;99721.13;;;11.02;100.00
71145;BME280;58812;47.698;17.726;2023-05-16T03:28:20;99714.75;;;11.03;100.00
71145;BME280;58812;47.698;17.726;2023-05-16T03:30:45;99708.41;;;11.04;100.00
71145;BME280;58812;47.698;17.726;2023-05-16T03:33:11;99703.19;;;11.02;100.00
71145;BME280;58812;47.698;17.726;2023-05-16T03:35:37;99696.34;;;11.00;100.00
71145;BME280;58812;47.698;17.726;2023-05-16T03:38:02;99699.69;;;11.02;100.00
71145;BME280;58812;47.698;17.726;2023-05-16T03:40:28;99702.38;;;11.02;100.00
71145;BME280;58812;47.698;17.726;2023-05-16T03:42:53;99709.75;;;11.00;100.00
71145;BME280;58812;47.698;17.726;2023-05-16T03:45:19;99709.09;;;11.06;100.00
71145;BME280;58812;47.698;17.726;2023-05-16T03:47:44;99710.09;;;11.05;100.00
71145;BME280;58812;47.698;17.726;2023-05-16T03:50:10;99712.59;;;11.06;100.00
71145;BME280;58812;47.698;17.726;2023-05-16T03:52:35;99722.34;;;11.15;100.00
71145;BME280;58812;47.698;17.726;2023-05-16T03:55:01;99712.81;;;11.21;100.00
71145;BME280;58812;47.698;17.726;2023-05-16T03:57:30;99716.16;;;11.23;100.00
71145;BME280;58812;47.698;17.726;2023-05-16T03:59:56;99723.72;;;11.28;100.00
71145;BME280;58812;47.698;17.726;2023-05-16T04:02:22;99716.50;;;11.28;100.00
71145;BME280;58812;47.698;17.726;2023-05-16T04:04:47;99732.94;;;11.33;100.00
71145;BME280;58812;47.698;17.726;2023-05-16T04:07:13;99736.28;;;11.35;100.00
71145;BME280;58812;47.698;17.726;2023-05-16T04:09:38;99722.53;;;11.38;100.00
71145;BME280;58812;47.698;17.726;2023-05-16T04:12:04;99728.06;;;11.37;100.00
71145;BME280;58812;47.698;17.726;2023-05-16T04:14:30;99725.75;;;11.42;100.00
71145;BME280;58812;47.698;17.726;2023-05-16T04:16:55;99723.91;;;11.42;100.00
71145;BME280;58812;47.698;17.726;2023-05-16T04:19:21;99734.97;;;11.47;100.00
71145;BME280;58812;47.698;17.726;2023-05-16T04:21:46;99735.63;;;11.49;100.00
71145;BME280;58812;47.698;17.726;2023-05-16T04:24:11;99748.38;;;11.56;100.00
71145;BME280;58812;47.698;17.726;2023-05-16T04:26:37;99754.56;;;11.56;100.00
71145;BME280;58812;47.698;17.726;2023-05-16T04:29:02;99767.97;;;11.56;100.00
71145;BME280;58812;47.698;17.726;2023-05-16T04:31:28;99782.72;;;11.60;100.00
71145;BME280;58812;47.698;17.726;2023-05-16T04:33:53;99786.09;;;11.62;100.00
71145;BME280;58812;47.698;17.726;2023-05-16T04:36:20;99798.31;;;11.65;100.00
71145;BME280;58812;47.698;17.726;2023-05-16T04:38:46;99803.16;;;11.61;100.00
71145;BME280;58812;47.698;17.726;2023-05-16T04:41:12;99803.50;;;11.58;100.00
71145;BME280;58812;47.698;17.726;2023-05-16T04:43:38;99813.75;;;11.63;100.00
71145;BME280;58812;47.698;17.726;2023-05-16T04:46:04;99811.25;;;11.69;100.00
71145;BME280;58812;47.698;17.726;2023-05-16T04:48:32;99818.13;;;11.72;100.00
71145;BME280;58812;47.698;17.726;2023-05-16T04:50:57;99821.13;;;11.77;100.00
71145;BME280;58812;47.698;17.726;2023-05-16T04:53:23;99827.50;;;11.76;100.00
71145;BME280;58812;47.698;17.726;2023-05-16T04:55:48;99821.81;;;11.79;100.00
71145;BME280;58812;47.698;17.726;2023-05-16T04:58:13;99809.13;;;11.81;100.00
71145;BME280;58812;47.698;17.726;2023-05-16T05:00:39;99805.44;;;11.82;100.00
71145;BME280;58812;47.698;17.726;2023-05-16T05:03:05;99805.78;;;11.87;100.00
71145;BME280;58812;47.698;17.726;2023-05-16T05:05:30;99808.09;;;11.90;100.00
71145;BME280;58812;47.698;17.726;2023-05-16T05:07:57;99796.06;;;11.94;100.00
71145;BME280;58812;47.698;17.726;2023-05-16T05:10:22;99794.72;;;11.98;100.00
71145;BME280;58812;47.698;17.726;2023-05-16T05:12:48;99781.31;;;11.98;100.00
71145;BME280;58812;47.698;17.726;2023-05-16T05:15:13;99775.25;;;11.96;100.00
71145;BME280;58812;47.698;17.726;2023-05-16T05:17:39;99756.16;;;11.99;100.00
71145;BME280;58812;47.698;17.726;2023-05-16T05:20:05;99750.44;;;11.94;100.00
71145;BME280;58812;47.698;17.726;2023-05-16T05:22:34;99744.72;;;11.97;100.00
71145;BME280;58812;47.698;17.726;2023-05-16T05:25:00;99750.44;;;11.94;100.00
71145;BME280;58812;47.698;17.726;2023-05-16T05:27:25;99751.09;;;11.96;100.00
71145;BME280;58812;47.698;17.726;2023-05-16T05:29:51;99745.75;;;11.88;100.00
71145;BME280;58812;47.698;17.726;2023-05-16T05:32:17;99749.09;;;11.90;100.00
71145;BME280;58812;47.698;17.726;2023-05-16T05:34:42;99752.47;;;11.92;100.00
71145;BME280;58812;47.698;17.726;2023-05-16T05:37:07;99752.94;;;11.96;100.00
71145;BME280;58812;47.698;17.726;2023-05-16T05:39:33;99749.13;;;11.98;100.00
71145;BME280;58812;47.698;17.726;2023-05-16T05:41:59;99750.44;;;12.02;100.00
71145;BME280;58812;47.698;17.726;2023-05-16T05:44:25;99757.16;;;12.07;100.00
71145;BME280;58812;47.698;17.726;2023-05-16T05:46:51;99756.50;;;12.05;100.00
71145;BME280;58812;47.698;17.726;2023-05-16T05:49:16;99753.94;;;12.03;100.00
71145;BME280;58812;47.698;17.726;2023-05-16T05:51:42;99750.44;;;12.11;100.00
71145;BME280;58812;47.698;17.726;2023-05-16T05:54:07;99748.94;;;12.16;100.00
71145;BME280;58812;47.698;17.726;2023-05-16T05:56:33;99753.12;;;12.19;100.00
71145;BME280;58812;47.698;17.726;2023-05-16T05:58:58;99754.31;;;12.16;100.00
71145;BME280;58812;47.698;17.726;2023-05-16T06:01:24;99746.72;;;12.20;100.00
71145;BME280;58812;47.698;17.726;2023-05-16T06:03:49;99740.88;;;12.24;100.00
71145;BME280;58812;47.698;17.726;2023-05-16T06:06:16;99731.16;;;12.23;100.00
71145;BME280;58812;47.698;17.726;2023-05-16T06:08:42;99736.00;;;12.28;100.00
71145;BME280;58812;47.698;17.726;2023-05-16T06:11:07;99729.81;;;12.27;100.00
71145;BME280;58812;47.698;17.726;2023-05-16T06:13:33;99735.81;;;13.55;100.00
71145;BME280;58812;47.698;17.726;2023-05-16T06:15:58;99736.50;;;12.87;100.00
71145;BME280;58812;47.698;17.726;2023-05-16T06:18:24;99740.38;;;13.24;100.00
71145;BME280;58812;47.698;17.726;2023-05-16T06:20:49;99739.41;;;13.71;100.00
71145;BME280;58812;47.698;17.726;2023-05-16T06:23:16;99745.84;;;12.99;100.00
71145;BME280;58812;47.698;17.726;2023-05-16T06:25:41;99751.44;;;12.90;100.00
71145;BME280;58812;47.698;17.726;2023-05-16T06:28:07;99754.16;;;13.98;100.00
71145;BME280;58812;47.698;17.726;2023-05-16T06:30:32;99768.03;;;14.47;100.00
71145;BME280;58812;47.698;17.726;2023-05-16T06:32:58;99772.81;;;14.37;100.00
71145;BME280;58812;47.698;17.726;2023-05-16T06:35:23;99781.03;;;14.88;100.00
71145;BME280;58812;47.698;17.726;2023-05-16T06:37:49;99776.78;;;14.79;100.00
71145;BME280;58812;47.698;17.726;2023-05-16T06:40:14;99768.59;;;14.20;100.00
71145;BME280;58812;47.698;17.726;2023-05-16T06:42:40;99766.69;;;14.43;100.00
71145;BME280;58812;47.698;17.726;2023-05-16T06:45:05;99753.50;;;13.73;100.00
71145;BME280;58812;47.698;17.726;2023-05-16T06:47:31;99752.13;;;13.54;100.00
71145;BME280;58812;47.698;17.726;2023-05-16T06:49:57;99766.13;;;14.33;100.00
71145;BME280;58812;47.698;17.726;2023-05-16T06:52:22;99774.47;;;13.54;100.00
71145;BME280;58812;47.698;17.726;2023-05-16T06:54:48;99786.34;;;14.81;100.00
71145;BME280;58812;47.698;17.726;2023-05-16T06:57:13;99788.88;;;14.83;100.00
71145;BME280;58812;47.698;17.726;2023-05-16T06:59:39;99797.69;;;14.91;100.00
71145;BME280;58812;47.698;17.726;2023-05-16T07:02:05;99801.09;;;14.18;100.00
71145;BME280;58812;47.698;17.726;2023-05-16T07:04:30;99804.03;;;14.84;100.00
71145;BME280;58812;47.698;17.726;2023-05-16T07:06:56;99800.03;;;14.94;100.00
71145;BME280;58812;47.698;17.726;2023-05-16T07:09:22;99786.66;;;14.72;100.00
71145;BME280;58812;47.698;17.726;2023-05-16T07:11:47;99774.47;;;14.38;100.00
71145;BME280;58812;47.698;17.726;2023-05-16T07:14:13;99766.72;;;13.59;100.00
71145;BME280;58812;47.698;17.726;2023-05-16T07:16:38;99765.28;;;13.72;100.00
71145;BME280;58812;47.698;17.726;2023-05-16T07:19:04;99759.47;;;13.37;100.00
71145;BME280;58812;47.698;17.726;2023-05-16T07:21:29;99758.94;;;13.02;100.00
71145;BME280;58812;47.698;17.726;2023-05-16T07:23:55;99771.06;;;12.90;100.00
71145;BME280;58812;47.698;17.726;2023-05-16T07:26:20;99769.56;;;13.81;100.00
71145;BME280;58812;47.698;17.726;2023-05-16T07:28:48;99771.00;;;13.06;100.00
71145;BME280;58812;47.698;17.726;2023-05-16T07:31:14;99768.31;;;13.06;100.00
71145;BME280;58812;47.698;17.726;2023-05-16T07:33:41;99777.41;;;13.05;100.00
71145;BME280;58812;47.698;17.726;2023-05-16T07:36:06;99777.28;;;12.91;100.00
71145;BME280;58812;47.698;17.726;2023-05-16T07:38:32;99775.28;;;12.84;100.00
71145;BME280;58812;47.698;17.726;2023-05-16T07:40:57;99771.44;;;12.79;100.00
71145;BME280;58812;47.698;17.726;2023-05-16T07:43:23;99770.28;;;12.73;100.00
71145;BME280;58812;47.698;17.726;2023-05-16T07:45:48;99770.63;;;12.70;100.00
71145;BME280;58812;47.698;17.726;2023-05-16T07:48:14;99759.22;;;12.68;100.00
71145;BME280;58812;47.698;17.726;2023-05-16T07:50:42;99755.22;;;12.56;100.00
71145;BME280;58812;47.698;17.726;2023-05-16T07:53:07;99767.47;;;12.50;100.00
71145;BME280;58812;47.698;17.726;2023-05-16T07:55:32;99763.75;;;12.68;100.00
71145;BME280;58812;47.698;17.726;2023-05-16T07:57:58;99749.66;;;12.66;100.00
71145;BME280;58812;47.698;17.726;2023-05-16T08:00:23;99769.81;;;12.62;100.00
71145;BME280;58812;47.698;17.726;2023-05-16T08:02:49;99767.41;;;12.83;100.00
71145;BME280;58812;47.698;17.726;2023-05-16T08:05:15;99765.47;;;12.52;100.00
71145;BME280;58812;47.698;17.726;2023-05-16T08:07:40;99761.75;;;12.70;100.00
71145;BME280;58812;47.698;17.726;2023-05-16T08:10:06;99765.09;;;12.72;100.00
71145;BME280;58812;47.698;17.726;2023-05-16T08:12:32;99753.16;;;13.14;100.00
71145;BME280;58812;47.698;17.726;2023-05-16T08:14:57;99758.84;;;13.27;100.00
71145;BME280;58812;47.698;17.726;2023-05-16T08:17:22;99758.94;;;13.02;100.00
71145;BME280;58812;47.698;17.726;2023-05-16T08:19:48;99749.66;;;12.66;100.00
71145;BME280;58812;47.698;17.726;2023-05-16T08:22:14;99740.88;;;12.80;100.00
71145;BME280;58812;47.698;17.726;2023-05-16T08:24:39;99725.88;;;12.54;100.00
71145;BME280;58812;47.698;17.726;2023-05-16T08:27:05;99720.44;;;12.63;100.00
71145;BME280;58812;47.698;17.726;2023-05-16T08:29:30;99721.97;;;12.65;100.00
71145;BME280;58812;47.698;17.726;2023-05-16T08:31:56;99725.88;;;12.54;100.00
71145;BME280;58812;47.698;17.726;2023-05-16T08:34:22;99712.16;;;12.41;100.00
71145;BME280;58812;47.698;17.726;2023-05-16T08:36:47;99726.22;;;12.51;100.00
71145;BME280;58812;47.698;17.726;2023-05-16T08:39:13;99723.81;;;12.56;100.00
71145;BME280;58812;47.698;17.726;2023-05-16T08:41:39;99734.66;;;12.79;100.00
71145;BME280;58812;47.698;17.726;2023-05-16T08:44:04;99743.59;;;12.72;100.00
71145;BME280;58812;47.698;17.726;2023-05-16T08:46:32;99745.62;;;12.70;100.00
71145;BME280;58812;47.698;17.726;2023-05-16T08:48:59;99745.97;;;12.67;100.00
71145;BME280;58812;47.698;17.726;2023-05-16T08:51:27;99754.38;;;12.64;100.00
71145;BME280;58812;47.698;17.726;2023-05-16T08:54:21;99758.38;;;12.68;100.00
71145;BME280;58812;47.698;17.726;2023-05-16T08:56:47;99780.87;;;12.75;100.00
71145;BME280;58812;47.698;17.726;2023-05-16T08:59:15;99786.16;;;12.91;100.00
71145;BME280;58812;47.698;17.726;2023-05-16T09:01:40;99782.88;;;12.73;100.00
71145;BME280;58812;47.698;17.726;2023-05-16T09:04:07;99790.59;;;12.76;100.00
71145;BME280;58812;47.698;17.726;2023-05-16T09:06:34;99780.19;;;12.73;100.00
71145;BME280;58812;47.698;17.726;2023-05-16T09:08:59;99763.94;;;12.66;100.00
71145;BME280;58812;47.698;17.726;2023-05-16T09:11:25;99758.03;;;12.71;100.00
71145;BME280;58812;47.698;17.726;2023-05-16T09:13:50;99765.41;;;12.69;100.00
71145;BME280;58812;47.698;17.726;2023-05-16T09:16:20;99772.50;;;12.70;100.00
71145;BME280;58812;47.698;17.726;2023-05-16T09:18:52;99778.78;;;12.93;100.00
71145;BME280;58812;47.698;17.726;2023-05-16T09:21:19;99768.03;;;12.93;100.00
71145;BME280;58812;47.698;17.726;2023-05-16T09:23:47;99765.00;;;12.96;100.00
71145;BME280;58812;47.698;17.726;2023-05-16T09:26:14;99755.69;;;12.76;100.00
71145;BME280;58812;47.698;17.726;2023-05-16T09:28:39;99764.69;;;12.91;100.00
71145;BME280;58812;47.698;17.726;2023-05-16T09:31:22;99766.34;;;13.00;100.00
71145;BME280;58812;47.698;17.726;2023-05-16T09:33:49;99768.47;;;13.13;100.00
71145;BME280;58812;47.698;17.726;2023-05-16T09:36:15;99773.19;;;13.03;100.00
71145;BME280;58812;47.698;17.726;2023-05-16T09:38:40;99768.31;;;13.06;100.00
71145;BME280;58812;47.698;17.726;2023-05-16T09:41:08;99750.63;;;12.73;100.00
71145;BME280;58812;47.698;17.726;2023-05-16T09:43:37;99730.72;;;12.51;100.00
71145;BME280;58812;47.698;17.726;2023-05-16T09:46:03;99732.91;;;12.55;100.00
71145;BME280;58812;47.698;17.726;2023-05-16T09:48:28;99730.94;;;12.41;100.00
71145;BME280;58812;47.698;17.726;2023-05-16T09:50:54;99733.13;;;12.38;100.00
71145;BME280;58812;47.698;17.726;2023-05-16T09:53:31;99741.34;;;12.36;100.00
71145;BME280;58812;47.698;17.726;2023-05-16T09:56:05;99752.06;;;12.44;100.00
71145;BME280;58812;47.698;17.726;2023-05-16T09:58:33;99768.16;;;12.44;100.00
71145;BME280;58812;47.698;17.726;2023-05-16T10:01:00;99762.47;;;12.47;100.00
71145;BME280;58812;47.698;17.726;2023-05-16T10:03:26;99763.47;;;12.38;100.00
71145;BME280;58812;47.698;17.726;2023-05-16T10:05:52;99776.53;;;12.49;100.00
71145;BME280;58812;47.698;17.726;2023-05-16T10:08:24;99779.25;;;12.41;100.00
71145;BME280;58812;47.698;17.726;2023-05-16T10:10:50;99779.91;;;12.51;100.00
71145;BME280;58812;47.698;17.726;2023-05-16T10:13:19;99782.25;;;12.38;100.00
71145;BME280;58812;47.698;17.726;2023-05-16T10:15:46;99768.50;;;12.33;100.00
71145;BME280;58812;47.698;17.726;2023-05-16T10:18:13;99766.84;;;12.40;100.00
71145;BME280;58812;47.698;17.726;2023-05-16T10:20:41;99750.59;;;12.34;100.00
71145;BME280;58812;47.698;17.726;2023-05-16T10:23:08;99746.00;;;12.50;100.00
71145;BME280;58812;47.698;17.726;2023-05-16T10:25:40;99750.37;;;12.43;100.00
71145;BME280;58812;47.698;17.726;2023-05-16T10:28:07;99744.38;;;12.41;100.00
71145;BME280;58812;47.698;17.726;2023-05-16T10:30:33;99749.09;;;12.23;100.00
71145;BME280;58812;47.698;17.726;2023-05-16T10:33:00;99750.59;;;12.34;100.00
71145;BME280;58812;47.698;17.726;2023-05-16T10:35:26;99763.00;;;12.18;100.00
71145;BME280;58812;47.698;17.726;2023-05-16T10:37:52;99768.91;;;12.06;100.00
71145;BME280;58812;47.698;17.726;2023-05-16T10:40:18;99769.56;;;12.16;100.00
71145;BME280;58812;47.698;17.726;2023-05-16T10:43:00;99767.69;;;12.24;100.00
71145;BME280;58812;47.698;17.726;2023-05-16T10:45:26;99782.44;;;12.20;100.00
71145;BME280;58812;47.698;17.726;2023-05-16T10:47:55;99771.22;;;12.09;100.00
71145;BME280;58812;47.698;17.726;2023-05-16T10:50:42;99759.00;;;11.90;100.00
71145;BME280;58812;47.698;17.726;2023-05-16T10:55:43;99758.63;;;12.25;100.00
71145;BME280;58812;47.698;17.726;2023-05-16T10:58:09;99748.94;;;12.00;100.00
71145;BME280;58812;47.698;17.726;2023-05-16T11:00:34;99729.16;;;12.01;100.00
71145;BME280;58812;47.698;17.726;2023-05-16T11:03:21;99722.94;;;12.17;100.00
71145;BME280;58812;47.698;17.726;2023-05-16T11:05:52;99705.66;;;12.11;100.00
71145;BME280;58812;47.698;17.726;2023-05-16T11:08:18;99704.16;;;12.09;100.00
71145;BME280;58812;47.698;17.726;2023-05-16T11:10:43;99698.78;;;12.09;100.00
71145;BME280;58812;47.698;17.726;2023-05-16T11:13:09;99687.41;;;11.98;100.00
71145;BME280;58812;47.698;17.726;2023-05-16T11:15:34;99683.69;;;12.08;100.00
71145;BME280;58812;47.698;17.726;2023-05-16T11:18:08;99684.34;;;12.18;100.00
71145;BME280;58812;47.698;17.726;2023-05-16T11:20:38;99681.81;;;12.24;100.00
71145;BME280;58812;47.698;17.726;2023-05-16T11:25:42;99688.37;;;12.22;100.00
71145;BME280;58812;47.698;17.726;2023-05-16T11:28:11;99682.31;;;12.20;100.00
71145;BME280;58812;47.698;17.726;2023-05-16T11:30:42;99678.81;;;12.27;100.00
71145;BME280;58812;47.698;17.726;2023-05-16T11:33:07;99661.88;;;12.19;100.00
71145;BME280;58812;47.698;17.726;2023-05-16T11:35:33;99660.38;;;12.16;100.00
71145;BME280;58812;47.698;17.726;2023-05-16T11:37:58;99662.72;;;12.19;100.00
71145;BME280;58812;47.698;17.726;2023-05-16T11:40:25;99660.03;;;12.27;100.00
71145;BME280;58812;47.698;17.726;2023-05-16T11:42:51;99641.75;;;12.23;100.00
71145;BME280;58812;47.698;17.726;2023-05-16T11:45:20;99646.59;;;12.19;100.00
71145;BME280;58812;47.698;17.726;2023-05-16T11:47:49;99651.13;;;12.19;100.00
71145;BME280;58812;47.698;17.726;2023-05-16T11:50:21;99633.34;;;12.26;100.00
71145;BME280;58812;47.698;17.726;2023-05-16T11:52:52;99632.06;;;12.53;100.00
71145;BME280;58812;47.698;17.726;2023-05-16T11:55:20;99627.59;;;12.37;100.00
71145;BME280;58812;47.698;17.726;2023-05-16T11:57:49;99625.28;;;12.34;100.00
71145;BME280;58812;47.698;17.726;2023-05-16T12:00:20;99619.22;;;12.40;100.00
71145;BME280;58812;47.698;17.726;2023-05-16T12:02:47;99631.28;;;12.36;100.00
71145;BME280;58812;47.698;17.726;2023-05-16T12:05:13;99620.56;;;12.36;100.00
71145;BME280;58812;47.698;17.726;2023-05-16T12:07:40;99624.41;;;12.42;100.00
71145;BME280;58812;47.698;17.726;2023-05-16T12:10:06;99619.16;;;12.48;100.00
71145;BME280;58812;47.698;17.726;2023-05-16T12:12:33;99609.12;;;12.42;100.00
71145;BME280;58812;47.698;17.726;2023-05-16T12:15:00;99610.84;;;12.35;100.00
71145;BME280;58812;47.698;17.726;2023-05-16T12:17:25;99618.56;;;12.30;100.00
71145;BME280;58812;47.698;17.726;2023-05-16T12:19:51;99613.84;;;12.32;100.00
71145;BME280;58812;47.698;17.726;2023-05-16T12:22:18;99614.00;;;12.39;100.00
71145;BME280;58812;47.698;17.726;2023-05-16T12:24:44;99600.75;;;12.37;100.00
71145;BME280;58812;47.698;17.726;2023-05-16T12:27:09;99608.50;;;12.32;100.00
71145;BME280;58812;47.698;17.726;2023-05-16T12:29:35;99605.00;;;12.23;100.00
71145;BME280;58812;47.698;17.726;2023-05-16T12:32:00;99608.72;;;12.22;100.00
71145;BME280;58812;47.698;17.726;2023-05-16T12:34:28;99603.34;;;12.22;100.00
71145;BME280;58812;47.698;17.726;2023-05-16T12:36:54;99611.41;;;12.22;100.00
71145;BME280;58812;47.698;17.726;2023-05-16T12:39:20;99597.84;;;12.16;100.00
71145;BME280;58812;47.698;17.726;2023-05-16T12:41:47;99605.69;;;12.17;100.00
71145;BME280;58812;47.698;17.726;2023-05-16T12:44:17;99603.66;;;12.19;100.00
71145;BME280;58812;47.698;17.726;2023-05-16T12:46:49;99609.22;;;12.18;100.00
71145;BME280;58812;47.698;17.726;2023-05-16T12:49:18;99607.88;;;12.22;100.00
71145;BME280;58812;47.698;17.726;2023-05-16T12:51:51;99608.72;;;12.22;100.00